TimeEDT,TemperatureF,Dew PointF,Humidity,Sea Level PressureIn,VisibilityMPH,Wind Direction,Wind SpeedMPH,Gust SpeedMPH,PrecipitationIn,Events,Conditions,WindDirDegrees,DateUTC
12:15 AM,57.2,54.1,89,30.17,10.0,North,5.8,-,N/A,Rain,Light Rain,10,2013-10-09 04:15:00
12:35 AM,57.2,54.5,91,30.17,10.0,North,5.8,-,0.01,,Light Drizzle,10,2013-10-09 04:35:00
12:55 AM,57.2,54.5,91,30.16,10.0,North,4.6,-,0.01,,Overcast,360,2013-10-09 04:55:00
1:15 AM,57.2,54.5,91,30.15,10.0,NNE,8.1,-,N/A,,Overcast,30,2013-10-09 05:15:00
1:35 AM,57.2,54.5,91,30.15,10.0,North,6.9,-,N/A,Rain,Rain,10,2013-10-09 05:35:00
1:55 AM,57.2,54.5,91,30.15,10.0,North,6.9,-,0.01,Rain,Light Rain,360,2013-10-09 05:55:00
2:15 AM,57.2,54.7,91,30.13,10.0,North,6.9,-,0.02,Rain,Rain,10,2013-10-09 06:15:00
2:35 AM,57.0,54.7,92,30.13,10.0,North,8.1,-,0.03,Rain,Light Rain,10,2013-10-09 06:35:00
2:55 AM,56.8,54.7,92,30.12,10.0,North,6.9,-,0.04,Rain,Rain,360,2013-10-09 06:55:00
3:15 AM,56.7,54.5,92,30.12,10.0,North,6.9,-,N/A,Rain,Light Rain,360,2013-10-09 07:15:00
3:35 AM,56.5,54.3,92,30.11,10.0,North,4.6,-,N/A,,Light Drizzle,360,2013-10-09 07:35:00
3:55 AM,56.5,54.0,91,30.10,10.0,North,6.9,-,N/A,,Mostly Cloudy,360,2013-10-09 07:55:00
4:15 AM,56.3,53.8,91,30.09,10.0,North,6.9,-,N/A,,Overcast,10,2013-10-09 08:15:00
4:35 AM,56.5,53.6,90,30.11,10.0,North,6.9,-,N/A,,Mostly Cloudy,10,2013-10-09 08:35:00
4:55 AM,56.5,53.6,90,30.10,10.0,North,8.1,-,N/A,Rain,Light Rain,10,2013-10-09 08:55:00
5:15 AM,56.5,53.6,90,30.11,10.0,North,5.8,-,N/A,Rain,Light Rain,360,2013-10-09 09:15:00
5:35 AM,56.7,53.8,90,30.10,10.0,NNE,9.2,-,N/A,,Light Drizzle,20,2013-10-09 09:35:00
5:55 AM,56.7,53.8,90,30.10,10.0,NNE,8.1,-,0.01,Rain,Rain,20,2013-10-09 09:55:00
6:15 AM,56.7,54.1,91,30.08,10.0,NNE,9.2,17.3,0.01,Rain,Light Rain,20,2013-10-09 10:15:00
6:35 AM,56.8,54.5,92,30.10,10.0,NNW,8.1,-,0.03,Rain,Rain,330,2013-10-09 10:35:00
6:55 AM,56.7,54.5,92,30.11,10.0,NW,6.9,-,0.05,Rain,Light Rain,310,2013-10-09 10:55:00
7:15 AM,56.5,54.5,93,30.09,10.0,North,8.1,-,N/A,,Drizzle,360,2013-10-09 11:15:00
7:35 AM,56.7,54.5,92,30.09,10.0,NNW,9.2,-,0.02,Rain,Light Rain,330,2013-10-09 11:35:00
7:55 AM,56.7,54.5,92,30.10,10.0,NNW,9.2,-,0.04,Rain,Light Rain,330,2013-10-09 11:55:00
8:15 AM,56.7,54.5,92,30.10,10.0,NNW,10.4,16.1,N/A,,Drizzle,340,2013-10-09 12:15:00
8:35 AM,57.0,54.7,92,30.11,10.0,NNW,11.5,16.1,0.02,Rain,Light Rain,340,2013-10-09 12:35:00
8:55 AM,57.2,54.9,92,30.11,10.0,North,8.1,-,0.04,Rain,Rain,350,2013-10-09 12:55:00
9:15 AM,57.4,55.2,92,30.10,10.0,NNW,8.1,-,0.02,Rain,Light Rain,340,2013-10-09 13:15:00
9:35 AM,57.9,55.6,92,30.11,10.0,North,5.8,-,0.02,,Drizzle,350,2013-10-09 13:35:00
9:55 AM,58.1,55.9,93,30.12,10.0,North,6.9,-,0.03,Rain,Light Rain,350,2013-10-09 13:55:00
10:15 AM,58.3,56.1,93,30.11,10.0,North,9.2,16.1,0.01,Rain,Light Rain,350,2013-10-09 14:15:00
10:35 AM,58.6,56.3,92,30.12,10.0,North,8.1,-,0.01,,Light Drizzle,360,2013-10-09 14:35:00
10:55 AM,59.0,56.5,91,30.11,10.0,NNW,5.8,-,0.01,,Overcast,340,2013-10-09 14:55:00
11:15 AM,59.0,56.5,91,30.11,10.0,NNW,9.2,16.1,N/A,Rain,Light Rain,340,2013-10-09 15:15:00
11:35 AM,59.2,56.7,91,30.10,7.0,North,9.2,16.1,0.02,Rain,Rain,350,2013-10-09 15:35:00
11:55 AM,59.2,56.8,92,30.10,10.0,NNW,10.4,19.6,0.02,Rain,Light Rain,340,2013-10-09 15:55:00
12:15 PM,59.2,56.8,92,30.10,10.0,NNW,10.4,-,N/A,,Overcast,340,2013-10-09 16:15:00
12:35 PM,59.4,57.0,92,30.10,10.0,NNW,6.9,17.3,N/A,,Overcast,340,2013-10-09 16:35:00
12:55 PM,59.9,57.2,91,30.10,10.0,North,10.4,16.1,N/A,Rain,Light Rain,350,2013-10-09 16:55:00
1:15 PM,59.9,57.2,91,30.09,10.0,North,9.2,-,0.01,Rain,Light Rain,350,2013-10-09 17:15:00
1:35 PM,59.9,57.4,91,30.09,10.0,North,9.2,17.3,0.01,Rain,Light Rain,350,2013-10-09 17:35:00
1:55 PM,59.5,57.4,93,30.09,10.0,North,6.9,17.3,0.01,Rain,Light Rain,350,2013-10-09 17:55:00
2:15 PM,59.7,57.6,93,30.08,10.0,North,9.2,16.1,0.01,Rain,Light Rain,350,2013-10-09 18:15:00
2:35 PM,60.1,58.1,93,30.07,7.0,NNW,11.5,16.1,0.04,Rain,Rain,340,2013-10-09 18:35:00
2:55 PM,60.1,58.1,93,30.07,7.0,NNW,11.5,16.1,0.09,Rain,Rain,340,2013-10-09 18:55:00
3:15 PM,60.4,58.3,93,30.07,5.0,NNW,11.5,17.3,0.04,Rain,Rain,340,2013-10-09 19:15:00
3:35 PM,60.6,58.3,92,30.06,7.0,NNW,11.5,20.7,0.06,Rain,Rain,340,2013-10-09 19:35:00
3:55 PM,60.8,58.5,92,30.06,5.0,North,9.2,17.3,0.08,Rain,Rain,360,2013-10-09 19:55:00
4:15 PM,60.8,58.3,91,30.06,5.0,North,11.5,17.3,0.02,Rain,Rain,350,2013-10-09 20:15:00
4:55 PM,60.3,57.9,92,30.06,4.0,NNW,9.2,17.3,0.12,Rain,Heavy Rain,340,2013-10-09 20:55:00
5:15 PM,59.7,57.4,92,30.05,10.0,North,9.2,-,0.03,Rain,Light Rain,350,2013-10-09 21:15:00
5:35 PM,59.5,57.2,92,30.05,5.0,North,11.5,19.6,0.07,Rain,Rain,350,2013-10-09 21:35:00
5:55 PM,59.4,57.2,93,30.05,10.0,North,11.5,20.7,0.08,Rain,Rain,350,2013-10-09 21:55:00
6:15 PM,59.4,57.0,92,30.04,10.0,North,12.7,18.4,N/A,,Light Drizzle,350,2013-10-09 22:15:00
6:35 PM,59.2,56.8,92,30.05,10.0,North,9.2,16.1,N/A,,Overcast,360,2013-10-09 22:35:00
6:55 PM,59.2,56.7,91,30.04,10.0,North,10.4,19.6,N/A,,Overcast,360,2013-10-09 22:55:00
7:15 PM,59.0,56.5,91,30.04,10.0,North,10.4,-,N/A,,Overcast,350,2013-10-09 23:15:00
7:55 PM,59.0,56.1,90,30.04,10.0,North,12.7,18.4,N/A,,Overcast,350,2013-10-09 23:55:00
8:15 PM,58.5,55.9,91,30.03,7.0,North,11.5,23.0,N/A,,Overcast,350,2013-10-10 00:15:00
8:35 PM,58.3,55.8,91,30.03,7.0,North,11.5,19.6,N/A,,Overcast,350,2013-10-10 00:35:00
8:55 PM,58.1,55.6,91,30.04,7.0,North,9.2,-,N/A,,Overcast,360,2013-10-10 00:55:00
9:15 PM,58.1,55.8,92,30.03,4.0,North,12.7,19.6,N/A,,Overcast,350,2013-10-10 01:15:00
9:35 PM,57.9,55.8,92,30.04,4.0,North,11.5,18.4,N/A,,Overcast,350,2013-10-10 01:35:00
9:55 PM,57.7,55.6,92,30.03,7.0,North,11.5,19.6,N/A,,Drizzle,360,2013-10-10 01:55:00
10:15 PM,57.7,55.4,92,30.02,10.0,North,11.5,18.4,0.01,,Drizzle,350,2013-10-10 02:15:00
10:35 PM,57.6,55.4,92,30.02,10.0,North,6.9,16.1,0.01,,Overcast,350,2013-10-10 02:35:00
10:55 PM,57.7,55.2,91,30.02,10.0,North,9.2,18.4,0.01,,Overcast,350,2013-10-10 02:55:00
11:15 PM,57.7,55.4,92,30.01,10.0,North,11.5,19.6,N/A,Rain,Light Rain,350,2013-10-10 03:15:00
11:35 PM,57.6,55.2,92,30.00,10.0,North,11.5,18.4,0.01,,Light Drizzle,350,2013-10-10 03:35:00
11:55 PM,57.6,55.0,91,30.00,10.0,North,9.2,-,0.01,Rain,Light Rain,360,2013-10-10 03:55:00